sensor_id;sensor_type;location;lat;lon;timestamp;temperature;humidity
68251;DHT22;55066;51.560;4.642;2023-02-28T00:02:21;0.52;96.25
68251;DHT22;55066;51.560;4.642;2023-02-28T00:04:46;0.30;97.11
68251;DHT22;55066;51.560;4.642;2023-02-28T00:07:29;0.29;98.31
68251;DHT22;55066;51.560;4.642;2023-02-28T00:09:55;0.30;97.94
68251;DHT22;55066;51.560;4.642;2023-02-28T00:12:21;0.36;98.26
68251;DHT22;55066;51.560;4.642;2023-02-28T00:14:46;0.09;98.66
68251;DHT22;55066;51.560;4.642;2023-02-28T00:17:11;0.11;98.96
68251;DHT22;55066;51.560;4.642;2023-02-28T00:19:37;-0.03;98.93
68251;DHT22;55066;51.560;4.642;2023-02-28T00:22:02;-0.12;99.42
68251;DHT22;55066;51.560;4.642;2023-02-28T00:24:28;-0.12;99.99
68251;DHT22;55066;51.560;4.642;2023-02-28T00:26:53;-0.05;99.85
68251;DHT22;55066;51.560;4.642;2023-02-28T00:29:19;0.11;99.48
68251;DHT22;55066;51.560;4.642;2023-02-28T00:31:44;0.22;99.24
68251;DHT22;55066;51.560;4.642;2023-02-28T00:34:10;0.22;99.19
68251;DHT22;55066;51.560;4.642;2023-02-28T00:36:35;0.05;99.32
68251;DHT22;55066;51.560;4.642;2023-02-28T00:39:06;0.02;99.80
68251;DHT22;55066;51.560;4.642;2023-02-28T00:41:31;-0.03;99.71
68251;DHT22;55066;51.560;4.642;2023-02-28T00:43:57;0.04;99.99
68251;DHT22;55066;51.560;4.642;2023-02-28T00:46:22;-0.01;99.57
68251;DHT22;55066;51.560;4.642;2023-02-28T00:48:49;-0.13;99.90
68251;DHT22;55066;51.560;4.642;2023-02-28T00:51:15;-0.03;99.99
68251;DHT22;55066;51.560;4.642;2023-02-28T00:53:42;0.01;99.99
68251;DHT22;55066;51.560;4.642;2023-02-28T00:56:08;0.14;99.86
68251;DHT22;55066;51.560;4.642;2023-02-28T00:58:33;0.16;99.42
68251;DHT22;55066;51.560;4.642;2023-02-28T01:00:59;0.09;99.88
68251;DHT22;55066;51.560;4.642;2023-02-28T01:03:25;0.02;99.61
68251;DHT22;55066;51.560;4.642;2023-02-28T01:05:51;0.18;99.87
68251;DHT22;55066;51.560;4.642;2023-02-28T01:08:18;0.29;99.39
68251;DHT22;55066;51.560;4.642;2023-02-28T01:10:43;0.33;99.20
68251;DHT22;55066;51.560;4.642;2023-02-28T01:13:10;0.42;98.95
68251;DHT22;55066;51.560;4.642;2023-02-28T01:15:36;0.45;98.74
68251;DHT22;55066;51.560;4.642;2023-02-28T01:18:04;0.43;98.41
68251;DHT22;55066;51.560;4.642;2023-02-28T01:20:30;0.50;98.59
68251;DHT22;55066;51.560;4.642;2023-02-28T01:22:55;0.56;98.16
68251;DHT22;55066;51.560;4.642;2023-02-28T01:25:21;0.62;97.73
68251;DHT22;55066;51.560;4.642;2023-02-28T01:27:46;0.59;97.59
68251;DHT22;55066;51.560;4.642;2023-02-28T01:30:12;0.62;98.08
68251;DHT22;55066;51.560;4.642;2023-02-28T01:32:37;0.66;97.80
68251;DHT22;55066;51.560;4.642;2023-02-28T01:35:03;0.73;97.93
68251;DHT22;55066;51.560;4.642;2023-02-28T01:37:28;0.74;97.62
68251;DHT22;55066;51.560;4.642;2023-02-28T01:39:54;0.77;97.54
68251;DHT22;55066;51.560;4.642;2023-02-28T01:42:19;0.74;97.39
68251;DHT22;55066;51.560;4.642;2023-02-28T01:45:55;0.64;97.24
68251;DHT22;55066;51.560;4.642;2023-02-28T01:47:51;0.69;97.27
68251;DHT22;55066;51.560;4.642;2023-02-28T01:50:21;0.73;97.72
68251;DHT22;55066;51.560;4.642;2023-02-28T01:52:49;0.69;97.66
68251;DHT22;55066;51.560;4.642;2023-02-28T01:55:18;0.71;97.86
68251;DHT22;55066;51.560;4.642;2023-02-28T01:57:55;0.76;97.44
68251;DHT22;55066;51.560;4.642;2023-02-28T02:00:23;0.79;97.72
68251;DHT22;55066;51.560;4.642;2023-02-28T02:02:53;0.74;97.75
68251;DHT22;55066;51.560;4.642;2023-02-28T02:05:25;0.70;97.75
68251;DHT22;55066;51.560;4.642;2023-02-28T02:07:55;0.66;98.29
68251;DHT22;55066;51.560;4.642;2023-02-28T02:10:31;0.70;98.45
68251;DHT22;55066;51.560;4.642;2023-02-28T02:29:47;1.18;96.77
68251;DHT22;55066;51.560;4.642;2023-02-28T02:40:47;1.22;97.58
68251;DHT22;55066;51.560;4.642;2023-02-28T02:43:36;1.29;97.61
68251;DHT22;55066;51.560;4.642;2023-02-28T02:46:07;1.25;97.78
68251;DHT22;55066;51.560;4.642;2023-02-28T02:48:36;1.31;97.72
68251;DHT22;55066;51.560;4.642;2023-02-28T02:51:07;1.28;97.73
68251;DHT22;55066;51.560;4.642;2023-02-28T02:53:44;1.29;97.70
68251;DHT22;55066;51.560;4.642;2023-02-28T02:56:13;1.32;97.66
68251;DHT22;55066;51.560;4.642;2023-02-28T02:58:42;1.35;97.80
68251;DHT22;55066;51.560;4.642;2023-02-28T03:01:15;1.34;97.81
68251;DHT22;55066;51.560;4.642;2023-02-28T03:03:41;1.36;98.10
68251;DHT22;55066;51.560;4.642;2023-02-28T03:06:07;1.39;98.35
68251;DHT22;55066;51.560;4.642;2023-02-28T03:08:36;1.39;98.34
68251;DHT22;55066;51.560;4.642;2023-02-28T03:11:10;1.38;98.51
68251;DHT22;55066;51.560;4.642;2023-02-28T03:14:05;1.36;98.60
68251;DHT22;55066;51.560;4.642;2023-02-28T03:19:23;1.32;98.93
68251;DHT22;55066;51.560;4.642;2023-02-28T03:24:37;1.34;98.97
68251;DHT22;55066;51.560;4.642;2023-02-28T03:27:10;1.38;98.81
68251;DHT22;55066;51.560;4.642;2023-02-28T03:29:42;1.42;98.80
68251;DHT22;55066;51.560;4.642;2023-02-28T03:32:21;1.43;98.93
68251;DHT22;55066;51.560;4.642;2023-02-28T03:34:56;1.45;98.82
68251;DHT22;55066;51.560;4.642;2023-02-28T03:37:26;1.47;98.68
68251;DHT22;55066;51.560;4.642;2023-02-28T03:40:13;1.45;98.96
68251;DHT22;55066;51.560;4.642;2023-02-28T03:42:42;1.45;98.82
68251;DHT22;55066;51.560;4.642;2023-02-28T03:45:25;1.49;98.72
68251;DHT22;55066;51.560;4.642;2023-02-28T03:48:02;1.47;98.66
68251;DHT22;55066;51.560;4.642;2023-02-28T03:50:38;1.47;98.68
68251;DHT22;55066;51.560;4.642;2023-02-28T03:53:19;1.50;98.64
68251;DHT22;55066;51.560;4.642;2023-02-28T03:55:53;1.49;98.57
68251;DHT22;55066;51.560;4.642;2023-02-28T04:01:16;1.50;98.27
68251;DHT22;55066;51.560;4.642;2023-02-28T04:03:44;1.49;98.30
68251;DHT22;55066;51.560;4.642;2023-02-28T04:06:15;1.49;98.08
68251;DHT22;55066;51.560;4.642;2023-02-28T04:08:42;1.49;98.24
68251;DHT22;55066;51.560;4.642;2023-02-28T04:13:44;1.47;98.06
68251;DHT22;55066;51.560;4.642;2023-02-28T04:16:10;1.49;97.88
68251;DHT22;55066;51.560;4.642;2023-02-28T04:18:41;1.47;97.63
68251;DHT22;55066;51.560;4.642;2023-02-28T04:21:08;1.47;97.76
68251;DHT22;55066;51.560;4.642;2023-02-28T04:23:34;1.53;97.22
68251;DHT22;55066;51.560;4.642;2023-02-28T04:25:59;1.55;97.16
68251;DHT22;55066;51.560;4.642;2023-02-28T04:28:25;1.60;96.81
68251;DHT22;55066;51.560;4.642;2023-02-28T04:31:02;1.63;96.85
68251;DHT22;55066;51.560;4.642;2023-02-28T04:33:27;1.62;97.28
68251;DHT22;55066;51.560;4.642;2023-02-28T04:36:05;1.60;97.38
68251;DHT22;55066;51.560;4.642;2023-02-28T04:38:36;1.60;97.60
68251;DHT22;55066;51.560;4.642;2023-02-28T04:41:02;1.60;97.79
68251;DHT22;55066;51.560;4.642;2023-02-28T04:43:29;1.59;98.01
68251;DHT22;55066;51.560;4.642;2023-02-28T04:45:56;1.53;97.84
68251;DHT22;55066;51.560;4.642;2023-02-28T04:48:27;1.60;97.61
68251;DHT22;55066;51.560;4.642;2023-02-28T04:50:53;1.56;97.82
68251;DHT22;55066;51.560;4.642;2023-02-28T04:53:19;1.59;97.50
68251;DHT22;55066;51.560;4.642;2023-02-28T04:55:45;1.56;97.71
68251;DHT22;55066;51.560;4.642;2023-02-28T04:58:11;1.59;97.28
68251;DHT22;55066;51.560;4.642;2023-02-28T05:00:37;1.57;97.18
68251;DHT22;55066;51.560;4.642;2023-02-28T05:03:02;1.57;97.17
68251;DHT22;55066;51.560;4.642;2023-02-28T05:05:28;1.60;96.82
68251;DHT22;55066;51.560;4.642;2023-02-28T05:07:54;1.64;96.68
68251;DHT22;55066;51.560;4.642;2023-02-28T05:10:24;1.67;96.52
68251;DHT22;55066;51.560;4.642;2023-02-28T05:12:49;1.64;96.73
68251;DHT22;55066;51.560;4.642;2023-02-28T05:15:16;1.63;96.95
68251;DHT22;55066;51.560;4.642;2023-02-28T05:17:42;1.63;96.87
68251;DHT22;55066;51.560;4.642;2023-02-28T05:20:08;1.70;96.88
68251;DHT22;55066;51.560;4.642;2023-02-28T05:22:39;1.70;96.66
68251;DHT22;55066;51.560;4.642;2023-02-28T05:25:05;1.68;96.76
68251;DHT22;55066;51.560;4.642;2023-02-28T05:27:31;1.64;97.08
68251;DHT22;55066;51.560;4.642;2023-02-28T05:29:56;1.63;96.54
68251;DHT22;55066;51.560;4.642;2023-02-28T05:32:22;1.66;96.24
68251;DHT22;55066;51.560;4.642;2023-02-28T05:34:47;1.64;96.32
68251;DHT22;55066;51.560;4.642;2023-02-28T05:37:14;1.63;96.09
68251;DHT22;55066;51.560;4.642;2023-02-28T05:39:40;1.66;95.64
68251;DHT22;55066;51.560;4.642;2023-02-28T05:42:05;1.62;96.05
68251;DHT22;55066;51.560;4.642;2023-02-28T05:44:31;1.62;95.96
68251;DHT22;55066;51.560;4.642;2023-02-28T05:46:57;1.63;95.88
68251;DHT22;55066;51.560;4.642;2023-02-28T05:49:25;1.60;95.54
68251;DHT22;55066;51.560;4.642;2023-02-28T05:51:51;1.62;95.13
68251;DHT22;55066;51.560;4.642;2023-02-28T05:56:51;1.62;94.85
68251;DHT22;55066;51.560;4.642;2023-02-28T05:59:17;1.66;95.26
68251;DHT22;55066;51.560;4.642;2023-02-28T06:01:44;1.62;94.91
68251;DHT22;55066;51.560;4.642;2023-02-28T06:04:15;1.66;94.97
68251;DHT22;55066;51.560;4.642;2023-02-28T06:06:49;1.64;94.49
68251;DHT22;55066;51.560;4.642;2023-02-28T06:09:15;1.68;94.23
68251;DHT22;55066;51.560;4.642;2023-02-28T06:11:42;1.64;94.28
68251;DHT22;55066;51.560;4.642;2023-02-28T06:14:14;1.64;94.61
68251;DHT22;55066;51.560;4.642;2023-02-28T06:16:40;1.62;94.37
68251;DHT22;55066;51.560;4.642;2023-02-28T06:19:06;1.62;94.50
68251;DHT22;55066;51.560;4.642;2023-02-28T06:21:32;1.59;94.49
68251;DHT22;55066;51.560;4.642;2023-02-28T06:23:58;1.63;94.24
68251;DHT22;55066;51.560;4.642;2023-02-28T06:26:24;1.68;94.13
68251;DHT22;55066;51.560;4.642;2023-02-28T06:28:49;1.68;93.70
68251;DHT22;55066;51.560;4.642;2023-02-28T06:31:16;1.66;93.75
68251;DHT22;55066;51.560;4.642;2023-02-28T06:33:43;1.64;94.13
68251;DHT22;55066;51.560;4.642;2023-02-28T06:36:09;1.66;94.83
68251;DHT22;55066;51.560;4.642;2023-02-28T06:38:35;1.74;93.09
68251;DHT22;55066;51.560;4.642;2023-02-28T06:41:01;1.74;93.42
68251;DHT22;55066;51.560;4.642;2023-02-28T06:43:29;1.73;92.99
68251;DHT22;55066;51.560;4.642;2023-02-28T06:45:56;1.77;93.50
68251;DHT22;55066;51.560;4.642;2023-02-28T06:48:22;1.80;93.18
68251;DHT22;55066;51.560;4.642;2023-02-28T06:50:48;1.78;92.42
68251;DHT22;55066;51.560;4.642;2023-02-28T06:53:13;1.77;92.53
68251;DHT22;55066;51.560;4.642;2023-02-28T06:55:40;1.77;92.50
68251;DHT22;55066;51.560;4.642;2023-02-28T06:58:07;1.81;91.82
68251;DHT22;55066;51.560;4.642;2023-02-28T07:00:43;1.81;91.87
68251;DHT22;55066;51.560;4.642;2023-02-28T07:03:09;1.85;92.42
68251;DHT22;55066;51.560;4.642;2023-02-28T07:05:37;1.91;91.95
68251;DHT22;55066;51.560;4.642;2023-02-28T07:08:03;1.90;90.87
68251;DHT22;55066;51.560;4.642;2023-02-28T07:10:30;1.91;90.86
68251;DHT22;55066;51.560;4.642;2023-02-28T07:12:55;1.94;90.84
68251;DHT22;55066;51.560;4.642;2023-02-28T07:15:21;2.00;92.25
68251;DHT22;55066;51.560;4.642;2023-02-28T07:17:46;2.01;91.29
68251;DHT22;55066;51.560;4.642;2023-02-28T07:20:12;1.98;90.59
68251;DHT22;55066;51.560;4.642;2023-02-28T07:22:37;1.98;90.45
68251;DHT22;55066;51.560;4.642;2023-02-28T07:25:04;2.07;90.96
68251;DHT22;55066;51.560;4.642;2023-02-28T07:27:30;2.14;91.37
68251;DHT22;55066;51.560;4.642;2023-02-28T07:29:55;2.14;90.56
68251;DHT22;55066;51.560;4.642;2023-02-28T07:32:22;2.21;91.54
68251;DHT22;55066;51.560;4.642;2023-02-28T07:34:47;2.17;90.60
68251;DHT22;55066;51.560;4.642;2023-02-28T07:37:14;2.14;90.68
68251;DHT22;55066;51.560;4.642;2023-02-28T07:39:39;2.17;90.80
68251;DHT22;55066;51.560;4.642;2023-02-28T07:42:08;2.18;90.60
68251;DHT22;55066;51.560;4.642;2023-02-28T07:44:39;2.25;90.76
68251;DHT22;55066;51.560;4.642;2023-02-28T07:47:09;2.32;90.28
68251;DHT22;55066;51.560;4.642;2023-02-28T07:49:37;2.36;90.04
68251;DHT22;55066;51.560;4.642;2023-02-28T07:52:05;2.45;89.88
68251;DHT22;55066;51.560;4.642;2023-02-28T07:54:31;2.45;89.32
68251;DHT22;55066;51.560;4.642;2023-02-28T07:56:56;2.48;89.91
68251;DHT22;55066;51.560;4.642;2023-02-28T07:59:22;2.45;89.79
68251;DHT22;55066;51.560;4.642;2023-02-28T08:01:47;2.42;89.95
68251;DHT22;55066;51.560;4.642;2023-02-28T08:04:16;2.46;89.75
68251;DHT22;55066;51.560;4.642;2023-02-28T08:06:42;2.63;90.22
68251;DHT22;55066;51.560;4.642;2023-02-28T08:09:07;2.63;89.85
68251;DHT22;55066;51.560;4.642;2023-02-28T08:11:33;2.46;89.57
68251;DHT22;55066;51.560;4.642;2023-02-28T08:14:00;2.48;89.75
68251;DHT22;55066;51.560;4.642;2023-02-28T08:16:25;2.69;90.14
68251;DHT22;55066;51.560;4.642;2023-02-28T08:18:51;2.77;89.31
68251;DHT22;55066;51.560;4.642;2023-02-28T08:21:18;2.88;89.85
68251;DHT22;55066;51.560;4.642;2023-02-28T08:23:43;2.80;88.84
68251;DHT22;55066;51.560;4.642;2023-02-28T08:26:11;2.79;88.99
68251;DHT22;55066;51.560;4.642;2023-02-28T08:28:36;2.84;88.85
68251;DHT22;55066;51.560;4.642;2023-02-28T08:31:07;2.88;88.83
68251;DHT22;55066;51.560;4.642;2023-02-28T08:33:33;2.86;86.57
68251;DHT22;55066;51.560;4.642;2023-02-28T08:35:59;2.88;84.04
68251;DHT22;55066;51.560;4.642;2023-02-28T08:38:24;2.88;81.50
68251;DHT22;55066;51.560;4.642;2023-02-28T08:40:49;3.04;80.86
68251;DHT22;55066;51.560;4.642;2023-02-28T08:43:15;3.18;79.69
68251;DHT22;55066;51.560;4.642;2023-02-28T08:45:40;3.26;78.82
68251;DHT22;55066;51.560;4.642;2023-02-28T08:48:06;3.31;77.31
68251;DHT22;55066;51.560;4.642;2023-02-28T08:50:31;3.53;78.73
68251;DHT22;55066;51.560;4.642;2023-02-28T08:52:56;3.28;76.28
68251;DHT22;55066;51.560;4.642;2023-02-28T08:55:23;3.19;76.63
68251;DHT22;55066;51.560;4.642;2023-02-28T08:57:48;3.15;76.53
68251;DHT22;55066;51.560;4.642;2023-02-28T09:00:15;3.40;76.67
68251;DHT22;55066;51.560;4.642;2023-02-28T09:02:41;3.55;76.49
68251;DHT22;55066;51.560;4.642;2023-02-28T09:05:08;3.40;75.53
68251;DHT22;55066;51.560;4.642;2023-02-28T09:07:33;3.28;75.63
68251;DHT22;55066;51.560;4.642;2023-02-28T09:09:59;3.42;77.12
68251;DHT22;55066;51.560;4.642;2023-02-28T09:12:25;3.39;75.05
68251;DHT22;55066;51.560;4.642;2023-02-28T09:14:52;3.34;75.37
68251;DHT22;55066;51.560;4.642;2023-02-28T09:17:18;3.49;75.79
68251;DHT22;55066;51.560;4.642;2023-02-28T09:19:43;3.56;75.59
68251;DHT22;55066;51.560;4.642;2023-02-28T09:22:10;3.56;75.37
68251;DHT22;55066;51.560;4.642;2023-02-28T09:24:37;3.60;75.37
68251;DHT22;55066;51.560;4.642;2023-02-28T09:27:02;3.90;75.12
68251;DHT22;55066;51.560;4.642;2023-02-28T09:29:28;3.97;75.04
68251;DHT22;55066;51.560;4.642;2023-02-28T09:31:53;3.98;76.61
68251;DHT22;55066;51.560;4.642;2023-02-28T09:34:19;3.81;70.95
68251;DHT22;55066;51.560;4.642;2023-02-28T09:36:45;4.00;68.78
68251;DHT22;55066;51.560;4.642;2023-02-28T09:39:11;4.28;68.73
68251;DHT22;55066;51.560;4.642;2023-02-28T09:41:40;4.35;68.69
68251;DHT22;55066;51.560;4.642;2023-02-28T09:44:26;4.35;67.57
68251;DHT22;55066;51.560;4.642;2023-02-28T09:46:57;4.39;66.26
68251;DHT22;55066;51.560;4.642;2023-02-28T09:49:31;4.46;65.22
68251;DHT22;55066;51.560;4.642;2023-02-28T09:52:02;4.46;65.93
68251;DHT22;55066;51.560;4.642;2023-02-28T09:54:30;4.38;65.00
68251;DHT22;55066;51.560;4.642;2023-02-28T09:59:38;4.55;65.78
68251;DHT22;55066;51.560;4.642;2023-02-28T10:05:12;4.86;64.54
68251;DHT22;55066;51.560;4.642;2023-02-28T10:10:30;4.76;65.01
68251;DHT22;55066;51.560;4.642;2023-02-28T10:13:02;4.62;63.82
68251;DHT22;55066;51.560;4.642;2023-02-28T10:15:32;4.38;64.22
68251;DHT22;55066;51.560;4.642;2023-02-28T10:18:05;4.50;63.98
68251;DHT22;55066;51.560;4.642;2023-02-28T10:20:37;4.73;63.71
68251;DHT22;55066;51.560;4.642;2023-02-28T10:23:12;5.07;63.90
68251;DHT22;55066;51.560;4.642;2023-02-28T10:25:45;5.27;64.69
68251;DHT22;55066;51.560;4.642;2023-02-28T10:28:15;5.36;65.45
68251;DHT22;55066;51.560;4.642;2023-02-28T10:30:43;5.20;64.47
68251;DHT22;55066;51.560;4.642;2023-02-28T10:33:19;4.97;65.76
68251;DHT22;55066;51.560;4.642;2023-02-28T10:35:45;5.36;65.35
68251;DHT22;55066;51.560;4.642;2023-02-28T10:38:23;5.74;67.93
68251;DHT22;55066;51.560;4.642;2023-02-28T10:40:50;5.85;62.87
68251;DHT22;55066;51.560;4.642;2023-02-28T10:46:02;5.41;62.32
68251;DHT22;55066;51.560;4.642;2023-02-28T10:50:59;5.45;61.54
68251;DHT22;55066;51.560;4.642;2023-02-28T10:53:31;5.55;62.38
68251;DHT22;55066;51.560;4.642;2023-02-28T11:09:38;5.31;63.14
68251;DHT22;55066;51.560;4.642;2023-02-28T11:12:07;5.38;61.97
68251;DHT22;55066;51.560;4.642;2023-02-28T11:14:51;4.98;61.31
68251;DHT22;55066;51.560;4.642;2023-02-28T11:17:21;5.27;62.70
68251;DHT22;55066;51.560;4.642;2023-02-28T11:19:53;5.60;64.40
68251;DHT22;55066;51.560;4.642;2023-02-28T11:22:28;5.63;62.69
68251;DHT22;55066;51.560;4.642;2023-02-28T11:25:22;5.59;62.69
68251;DHT22;55066;51.560;4.642;2023-02-28T11:27:58;5.70;59.88
68251;DHT22;55066;51.560;4.642;2023-02-28T11:35:58;5.60;61.42
68251;DHT22;55066;51.560;4.642;2023-02-28T11:38:25;5.55;62.31
68251;DHT22;55066;51.560;4.642;2023-02-28T11:43:39;5.52;61.66
68251;DHT22;55066;51.560;4.642;2023-02-28T11:48:58;5.77;62.11
68251;DHT22;55066;51.560;4.642;2023-02-28T12:26:41;6.39;60.34
68251;DHT22;55066;51.560;4.642;2023-02-28T12:34:56;6.46;61.92
68251;DHT22;55066;51.560;4.642;2023-02-28T12:37:39;6.46;61.33
68251;DHT22;55066;51.560;4.642;2023-02-28T12:40:19;6.75;58.75
68251;DHT22;55066;51.560;4.642;2023-02-28T12:42:59;6.53;55.84
68251;DHT22;55066;51.560;4.642;2023-02-28T12:45:42;6.48;57.83
68251;DHT22;55066;51.560;4.642;2023-02-28T12:48:14;6.48;56.36
68251;DHT22;55066;51.560;4.642;2023-02-28T12:50:41;6.68;59.88
68251;DHT22;55066;51.560;4.642;2023-02-28T12:53:38;6.55;64.22
68251;DHT22;55066;51.560;4.642;2023-02-28T12:56:16;6.57;55.94
68251;DHT22;55066;51.560;4.642;2023-02-28T12:58:50;6.34;59.09
68251;DHT22;55066;51.560;4.642;2023-02-28T13:09:31;7.11;69.06
68251;DHT22;55066;51.560;4.642;2023-02-28T13:11:57;6.75;62.45
68251;DHT22;55066;51.560;4.642;2023-02-28T13:14:35;6.36;57.51
68251;DHT22;55066;51.560;4.642;2023-02-28T13:19:46;7.32;73.08
68251;DHT22;55066;51.560;4.642;2023-02-28T13:22:46;6.61;55.12
68251;DHT22;55066;51.560;4.642;2023-02-28T13:28:01;6.62;61.44
68251;DHT22;55066;51.560;4.642;2023-02-28T13:33:28;6.55;64.01
68251;DHT22;55066;51.560;4.642;2023-02-28T13:38:47;7.05;58.31
68251;DHT22;55066;51.560;4.642;2023-02-28T13:46:28;6.65;57.56
68251;DHT22;55066;51.560;4.642;2023-02-28T13:48:53;6.80;66.42
68251;DHT22;55066;51.560;4.642;2023-02-28T13:51:49;6.55;61.10
68251;DHT22;55066;51.560;4.642;2023-02-28T14:00:06;7.22;64.09
68251;DHT22;55066;51.560;4.642;2023-02-28T14:02:50;6.89;60.89
68251;DHT22;55066;51.560;4.642;2023-02-28T14:05:20;6.73;57.79
68251;DHT22;55066;51.560;4.642;2023-02-28T14:07:53;6.75;57.86
68251;DHT22;55066;51.560;4.642;2023-02-28T14:10:28;6.75;62.44
68251;DHT22;55066;51.560;4.642;2023-02-28T14:13:10;7.01;65.68
68251;DHT22;55066;51.560;4.642;2023-02-28T14:18:19;7.77;90.33
68251;DHT22;55066;51.560;4.642;2023-02-28T14:20:48;7.05;57.13
68251;DHT22;55066;51.560;4.642;2023-02-28T14:31:22;6.83;57.68
68251;DHT22;55066;51.560;4.642;2023-02-28T14:34:11;6.62;56.81
68251;DHT22;55066;51.560;4.642;2023-02-28T14:36:40;6.32;57.85
68251;DHT22;55066;51.560;4.642;2023-02-28T14:39:27;6.31;57.26
68251;DHT22;55066;51.560;4.642;2023-02-28T14:41:56;6.63;57.36
68251;DHT22;55066;51.560;4.642;2023-02-28T14:44:28;6.72;59.18
68251;DHT22;55066;51.560;4.642;2023-02-28T14:47:02;6.73;61.15
68251;DHT22;55066;51.560;4.642;2023-02-28T14:49:31;6.77;57.56
68251;DHT22;55066;51.560;4.642;2023-02-28T14:52:23;7.73;57.31
68251;DHT22;55066;51.560;4.642;2023-02-28T14:54:59;9.13;62.24
68251;DHT22;55066;51.560;4.642;2023-02-28T14:57:28;7.83;53.20
68251;DHT22;55066;51.560;4.642;2023-02-28T15:00:12;8.28;54.12
68251;DHT22;55066;51.560;4.642;2023-02-28T15:02:40;8.30;55.65
68251;DHT22;55066;51.560;4.642;2023-02-28T15:07:37;7.70;52.82
68251;DHT22;55066;51.560;4.642;2023-02-28T15:10:24;7.91;55.60
68251;DHT22;55066;51.560;4.642;2023-02-28T15:13:05;8.20;56.71
68251;DHT22;55066;51.560;4.642;2023-02-28T15:15:51;7.65;56.31
68251;DHT22;55066;51.560;4.642;2023-02-28T15:18:28;7.87;57.29
68251;DHT22;55066;51.560;4.642;2023-02-28T15:20:57;7.48;56.16
68251;DHT22;55066;51.560;4.642;2023-02-28T15:23:24;7.93;62.18
68251;DHT22;55066;51.560;4.642;2023-02-28T15:25:51;9.00;69.34
68251;DHT22;55066;51.560;4.642;2023-02-28T15:28:20;9.20;59.90
68251;DHT22;55066;51.560;4.642;2023-02-28T15:31:20;8.10;57.22
68251;DHT22;55066;51.560;4.642;2023-02-28T15:34:03;8.03;62.50
68251;DHT22;55066;51.560;4.642;2023-02-28T15:36:31;8.21;69.91
68251;DHT22;55066;51.560;4.642;2023-02-28T15:38:59;7.89;55.58
68251;DHT22;55066;51.560;4.642;2023-02-28T15:41:28;8.15;58.83
68251;DHT22;55066;51.560;4.642;2023-02-28T15:44:13;7.83;64.23
68251;DHT22;55066;51.560;4.642;2023-02-28T15:46:43;8.18;71.86
68251;DHT22;55066;51.560;4.642;2023-02-28T15:49:18;7.94;71.70
68251;DHT22;55066;51.560;4.642;2023-02-28T15:51:44;7.85;63.04
68251;DHT22;55066;51.560;4.642;2023-02-28T15:54:26;7.97;72.84
68251;DHT22;55066;51.560;4.642;2023-02-28T15:56:55;7.80;62.52
68251;DHT22;55066;51.560;4.642;2023-02-28T15:59:24;7.15;57.85
68251;DHT22;55066;51.560;4.642;2023-02-28T16:02:16;7.12;62.31
68251;DHT22;55066;51.560;4.642;2023-02-28T16:05:12;7.48;64.50
68251;DHT22;55066;51.560;4.642;2023-02-28T16:07:43;7.38;70.89
68251;DHT22;55066;51.560;4.642;2023-02-28T16:10:11;6.92;61.89
68251;DHT22;55066;51.560;4.642;2023-02-28T16:12:38;6.79;61.98
68251;DHT22;55066;51.560;4.642;2023-02-28T16:15:17;7.42;71.25
68251;DHT22;55066;51.560;4.642;2023-02-28T16:17:43;6.79;64.20
68251;DHT22;55066;51.560;4.642;2023-02-28T16:22:45;6.79;68.08
68251;DHT22;55066;51.560;4.642;2023-02-28T16:25:19;6.68;67.86
68251;DHT22;55066;51.560;4.642;2023-02-28T16:27:47;6.48;65.27
68251;DHT22;55066;51.560;4.642;2023-02-28T16:30:20;6.10;60.62
68251;DHT22;55066;51.560;4.642;2023-02-28T16:32:47;5.71;64.01
68251;DHT22;55066;51.560;4.642;2023-02-28T16:35:13;5.85;69.05
68251;DHT22;55066;51.560;4.642;2023-02-28T16:37:39;5.70;72.23
68251;DHT22;55066;51.560;4.642;2023-02-28T16:40:19;5.51;63.46
68251;DHT22;55066;51.560;4.642;2023-02-28T16:42:55;5.27;65.15
68251;DHT22;55066;51.560;4.642;2023-02-28T16:45:27;5.46;74.98
68251;DHT22;55066;51.560;4.642;2023-02-28T16:47:54;5.28;65.39
68251;DHT22;55066;51.560;4.642;2023-02-28T16:50:22;5.59;71.47
68251;DHT22;55066;51.560;4.642;2023-02-28T16:52:48;5.34;67.39
68251;DHT22;55066;51.560;4.642;2023-02-28T16:55:17;5.20;66.83
68251;DHT22;55066;51.560;4.642;2023-02-28T16:57:45;5.13;66.73
68251;DHT22;55066;51.560;4.642;2023-02-28T17:00:15;5.24;71.40
68251;DHT22;55066;51.560;4.642;2023-02-28T17:02:42;5.17;73.45
68251;DHT22;55066;51.560;4.642;2023-02-28T17:05:10;5.17;77.32
68251;DHT22;55066;51.560;4.642;2023-02-28T17:07:36;4.97;67.03
68251;DHT22;55066;51.560;4.642;2023-02-28T17:10:01;4.79;76.33
68251;DHT22;55066;51.560;4.642;2023-02-28T17:12:33;4.53;68.38
68251;DHT22;55066;51.560;4.642;2023-02-28T17:15:00;4.52;66.41
68251;DHT22;55066;51.560;4.642;2023-02-28T17:17:26;4.34;65.44
68251;DHT22;55066;51.560;4.642;2023-02-28T17:19:51;4.45;75.68
68251;DHT22;55066;51.560;4.642;2023-02-28T17:22:17;4.32;74.16
68251;DHT22;55066;51.560;4.642;2023-02-28T17:24:42;4.29;77.26
68251;DHT22;55066;51.560;4.642;2023-02-28T17:27:11;3.98;70.84
68251;DHT22;55066;51.560;4.642;2023-02-28T17:29:37;3.91;73.78
68251;DHT22;55066;51.560;4.642;2023-02-28T17:32:03;4.01;89.24
68251;DHT22;55066;51.560;4.642;2023-02-28T17:34:29;3.87;88.15
68251;DHT22;55066;51.560;4.642;2023-02-28T17:36:54;3.69;77.83
68251;DHT22;55066;51.560;4.642;2023-02-28T17:39:20;3.73;92.46
68251;DHT22;55066;51.560;4.642;2023-02-28T17:41:53;3.66;82.53
68251;DHT22;55066;51.560;4.642;2023-02-28T17:44:20;3.52;85.97
68251;DHT22;55066;51.560;4.642;2023-02-28T17:46:46;3.62;94.10
68251;DHT22;55066;51.560;4.642;2023-02-28T17:49:12;3.55;87.20
68251;DHT22;55066;51.560;4.642;2023-02-28T17:51:38;3.53;95.32
68251;DHT22;55066;51.560;4.642;2023-02-28T17:54:03;3.45;93.81
68251;DHT22;55066;51.560;4.642;2023-02-28T17:56:30;3.64;99.99
68251;DHT22;55066;51.560;4.642;2023-02-28T17:58:56;3.63;99.99
68251;DHT22;55066;51.560;4.642;2023-02-28T18:01:22;3.77;99.99
68251;DHT22;55066;51.560;4.642;2023-02-28T18:03:49;3.79;99.99
68251;DHT22;55066;51.560;4.642;2023-02-28T18:08:45;3.73;99.36
68251;DHT22;55066;51.560;4.642;2023-02-28T18:11:11;3.56;98.76
68251;DHT22;55066;51.560;4.642;2023-02-28T18:13:46;3.45;99.40
68251;DHT22;55066;51.560;4.642;2023-02-28T18:16:15;3.48;99.83
68251;DHT22;55066;51.560;4.642;2023-02-28T18:18:40;3.36;99.31
68251;DHT22;55066;51.560;4.642;2023-02-28T18:21:07;3.36;99.77
68251;DHT22;55066;51.560;4.642;2023-02-28T18:23:33;3.32;99.43
68251;DHT22;55066;51.560;4.642;2023-02-28T18:25:59;3.29;99.25
68251;DHT22;55066;51.560;4.642;2023-02-28T18:28:25;3.24;99.06
68251;DHT22;55066;51.560;4.642;2023-02-28T18:30:50;3.14;98.88
68251;DHT22;55066;51.560;4.642;2023-02-28T18:33:16;2.98;99.03
68251;DHT22;55066;51.560;4.642;2023-02-28T18:35:41;2.94;99.17
68251;DHT22;55066;51.560;4.642;2023-02-28T18:38:16;2.86;99.12
68251;DHT22;55066;51.560;4.642;2023-02-28T18:40:52;2.83;99.29
68251;DHT22;55066;51.560;4.642;2023-02-28T18:43:18;2.80;98.97
68251;DHT22;55066;51.560;4.642;2023-02-28T18:45:43;2.76;98.97
68251;DHT22;55066;51.560;4.642;2023-02-28T18:48:11;2.67;98.81